createdAt,value
2023-05-13T00:02:08.480Z,82.51
2023-05-13T00:04:35.654Z,82.24
2023-05-13T00:07:02.762Z,82.11
2023-05-13T00:09:29.935Z,80.83
2023-05-13T00:11:57.045Z,80.57
2023-05-13T00:14:24.135Z,81.78
2023-05-13T00:16:51.473Z,80.80
2023-05-13T00:19:18.635Z,81.05
2023-05-13T00:21:45.802Z,82.24
2023-05-13T00:24:12.891Z,82.21
2023-05-13T00:26:39.970Z,83.18
2023-05-13T00:29:07.128Z,83.99
2023-05-13T00:31:35.476Z,83.58
2023-05-13T00:34:03.233Z,82.59
2023-05-13T00:36:30.585Z,82.82
2023-05-13T00:38:57.709Z,82.15
2023-05-13T00:41:25.078Z,82.25
2023-05-13T00:43:55.998Z,81.47
2023-05-13T00:46:23.993Z,81.86
2023-05-13T00:48:52.026Z,81.57
2023-05-13T00:51:19.253Z,81.44
2023-05-13T00:53:47.124Z,81.66
2023-05-13T00:56:15.305Z,81.68
2023-05-13T00:58:42.443Z,81.48
2023-05-13T01:01:21.301Z,81.61
2023-05-13T01:04:25.459Z,80.65
2023-05-13T01:07:07.890Z,81.31
2023-05-13T01:09:55.295Z,81.52
2023-05-13T01:12:36.982Z,80.60
2023-05-13T01:15:22.329Z,79.68
2023-05-13T01:17:58.314Z,79.43
2023-05-13T01:20:28.524Z,80.21
2023-05-13T01:22:56.825Z,81.38
2023-05-13T01:25:25.763Z,82.46
2023-05-13T01:27:53.679Z,81.54
2023-05-13T01:30:21.946Z,79.37
2023-05-13T01:32:50.937Z,78.94
2023-05-13T01:35:18.551Z,78.04
2023-05-13T01:37:47.470Z,77.52
2023-05-13T01:40:28.095Z,77.20
2023-05-13T01:43:01.430Z,76.63
2023-05-13T01:45:30.420Z,77.61
2023-05-13T01:47:58.180Z,77.72
2023-05-13T01:50:27.131Z,77.82
2023-05-13T01:52:54.427Z,76.94
2023-05-13T01:55:22.053Z,75.47
2023-05-13T01:57:49.777Z,74.37
2023-05-13T02:00:17.284Z,75.31
2023-05-13T02:02:44.716Z,74.71
2023-05-13T02:05:11.938Z,73.88
2023-05-13T02:07:39.156Z,72.67
2023-05-13T02:10:06.619Z,73.09
2023-05-13T02:12:33.746Z,71.97
2023-05-13T02:15:01.286Z,71.71
2023-05-13T02:17:30.840Z,70.84
2023-05-13T02:19:57.959Z,71.81
2023-05-13T02:22:25.713Z,72.17
2023-05-13T02:24:52.825Z,72.52
2023-05-13T02:27:20.981Z,71.62
2023-05-13T02:29:48.124Z,72.00
2023-05-13T02:32:15.184Z,71.24
2023-05-13T02:34:42.581Z,71.87
2023-05-13T02:37:09.684Z,71.65
2023-05-13T02:39:45.398Z,72.36
2023-05-13T02:42:13.230Z,72.15
2023-05-13T02:44:40.582Z,72.02
2023-05-13T02:47:09.098Z,71.90
2023-05-13T02:49:36.132Z,72.11
2023-05-13T02:52:04.018Z,71.15
2023-05-13T02:54:34.534Z,71.48
2023-05-13T02:57:01.577Z,71.08
2023-05-13T02:59:28.629Z,70.48
2023-05-13T03:01:55.695Z,70.30
2023-05-13T03:04:22.772Z,70.13
2023-05-13T03:06:51.321Z,69.64
2023-05-13T03:09:18.704Z,69.22
2023-05-13T03:11:45.823Z,68.75
2023-05-13T03:14:12.928Z,68.85
2023-05-13T03:16:40.171Z,69.35
2023-05-13T03:19:07.427Z,69.74
2023-05-13T03:21:34.781Z,71.92
2023-05-13T03:24:02.052Z,72.28
2023-05-13T03:26:29.152Z,73.50
2023-05-13T03:28:57.215Z,73.32
2023-05-13T03:31:24.672Z,72.04
2023-05-13T03:33:52.027Z,72.12
2023-05-13T03:36:19.652Z,71.86
2023-05-13T03:38:46.818Z,72.02
2023-05-13T03:41:17.542Z,70.75
2023-05-13T03:43:46.860Z,69.85
2023-05-13T03:46:14.972Z,69.94
2023-05-13T03:48:42.380Z,69.80
2023-05-13T03:51:09.457Z,70.17
2023-05-13T03:53:36.985Z,69.40
2023-05-13T03:56:04.436Z,67.22
2023-05-13T03:58:31.618Z,66.11
2023-05-13T04:00:58.742Z,65.40
2023-05-13T04:03:27.087Z,64.51
2023-05-13T04:05:54.262Z,63.35
2023-05-13T04:08:21.479Z,63.46
2023-05-13T04:10:49.493Z,63.24
2023-05-13T04:13:16.646Z,63.60
2023-05-13T04:15:43.766Z,62.19
2023-05-13T04:18:11.167Z,61.80
2023-05-13T04:20:39.740Z,61.34
2023-05-13T04:23:07.373Z,60.73
2023-05-13T04:25:37.473Z,59.65
2023-05-13T04:28:05.141Z,59.99
2023-05-13T04:30:36.654Z,59.33
2023-05-13T04:33:04.728Z,58.99
2023-05-13T04:35:33.184Z,58.04
2023-05-13T04:38:02.324Z,59.68
2023-05-13T04:40:30.127Z,58.93
2023-05-13T04:43:01.383Z,58.12
2023-05-13T04:45:33.172Z,56.01
2023-05-13T04:48:01.381Z,55.38
2023-05-13T04:50:28.585Z,54.22
2023-05-13T04:52:56.731Z,52.38
2023-05-13T04:55:26.017Z,52.23
2023-05-13T04:57:55.396Z,52.26
2023-05-13T05:00:22.885Z,53.17
2023-05-13T05:02:51.849Z,52.18
2023-05-13T05:05:19.094Z,48.72
2023-05-13T05:07:47.027Z,48.54
2023-05-13T05:10:15.712Z,48.83
2023-05-13T05:12:48.887Z,47.81
2023-05-13T05:15:16.220Z,47.51
2023-05-13T05:17:46.631Z,46.26
2023-05-13T05:20:13.820Z,46.01
2023-05-13T05:22:42.305Z,47.03
2023-05-13T05:25:12.076Z,46.32
2023-05-13T05:27:39.545Z,44.48
2023-05-13T05:30:09.221Z,44.78
2023-05-13T05:32:37.666Z,44.20
2023-05-13T05:35:06.275Z,41.16
2023-05-13T05:37:34.164Z,39.79
2023-05-13T05:40:01.471Z,39.36
2023-05-13T05:42:29.640Z,40.07
2023-05-13T05:44:56.774Z,39.76
2023-05-13T05:47:23.965Z,40.12
2023-05-13T05:49:51.413Z,38.58
2023-05-13T05:52:19.176Z,39.83
2023-05-13T05:54:46.274Z,38.46
2023-05-13T05:57:13.433Z,39.57
2023-05-13T05:59:40.605Z,39.73
2023-05-13T06:02:07.903Z,39.20
2023-05-13T06:04:36.163Z,39.67
2023-05-13T06:07:03.345Z,37.54
2023-05-13T06:09:30.808Z,38.21
2023-05-13T06:11:57.951Z,38.89
2023-05-13T06:14:25.265Z,39.74
2023-05-13T06:16:53.715Z,38.17
2023-05-13T06:19:22.784Z,37.57
2023-05-13T06:21:50.070Z,38.92
2023-05-13T06:24:17.147Z,39.01
2023-05-13T06:26:45.966Z,39.01
2023-05-13T06:29:14.801Z,39.82
2023-05-13T06:31:41.966Z,38.88
2023-05-13T06:34:09.189Z,40.15
2023-05-13T06:36:36.543Z,39.47
2023-05-13T06:39:06.116Z,39.23
2023-05-13T06:41:35.151Z,38.90
2023-05-13T06:44:08.369Z,38.64
2023-05-13T06:46:40.301Z,38.05
2023-05-13T06:49:07.525Z,39.50
2023-05-13T06:51:35.081Z,38.79
2023-05-13T06:54:02.207Z,37.09
2023-05-13T06:56:30.398Z,37.80
2023-05-13T06:58:57.577Z,37.52
2023-05-13T07:01:24.751Z,37.71
2023-05-13T07:03:51.924Z,38.58
2023-05-13T07:06:19.165Z,37.86
2023-05-13T07:08:46.465Z,37.06
2023-05-13T07:11:13.582Z,38.16
2023-05-13T07:13:40.684Z,38.08
2023-05-13T07:16:07.995Z,38.15
2023-05-13T07:18:35.365Z,37.39
2023-05-13T07:21:02.464Z,39.10
2023-05-13T07:23:29.590Z,37.78
2023-05-13T07:25:56.653Z,36.87
2023-05-13T07:28:23.939Z,36.75
2023-05-13T07:30:53.561Z,36.41
2023-05-13T07:33:20.764Z,35.81
2023-05-13T07:35:47.955Z,36.42
2023-05-13T07:38:15.492Z,35.59
2023-05-13T07:40:42.646Z,36.58
2023-05-13T07:43:10.185Z,36.01
2023-05-13T07:45:39.355Z,37.70
2023-05-13T07:48:06.690Z,37.01
2023-05-13T07:50:33.969Z,37.03
2023-05-13T07:53:01.196Z,36.53
2023-05-13T07:55:28.226Z,36.93
2023-05-13T07:57:55.292Z,36.58
2023-05-13T08:00:22.500Z,35.13
2023-05-13T08:02:49.747Z,37.56
2023-05-13T08:05:16.945Z,38.32
2023-05-13T08:07:44.108Z,35.12
2023-05-13T08:10:11.225Z,35.05
2023-05-13T08:12:40.435Z,36.41
2023-05-13T08:15:08.161Z,33.03
2023-05-13T08:17:35.594Z,32.36
2023-05-13T08:20:03.755Z,35.64
2023-05-13T08:22:31.126Z,35.41
2023-05-13T08:25:01.077Z,33.69
2023-05-13T08:27:28.301Z,35.28
2023-05-13T08:29:55.455Z,33.98
2023-05-13T08:32:22.680Z,36.04
2023-05-13T08:34:50.990Z,35.72
2023-05-13T08:37:18.127Z,36.34
2023-05-13T08:39:45.222Z,32.44
2023-05-13T08:42:12.699Z,35.05
2023-05-13T08:44:43.963Z,32.75
2023-05-13T08:47:22.737Z,32.56
2023-05-13T08:49:51.283Z,32.01
2023-05-13T08:52:21.044Z,32.70
2023-05-13T08:54:48.952Z,34.88
2023-05-13T08:57:16.814Z,31.67
2023-05-13T08:59:43.971Z,33.27
2023-05-13T09:02:11.158Z,32.86
2023-05-13T09:04:42.293Z,33.04
2023-05-13T09:07:10.649Z,32.64
2023-05-13T09:09:38.056Z,32.36
2023-05-13T09:12:06.049Z,33.80
2023-05-13T09:14:33.154Z,32.02
2023-05-13T09:17:02.555Z,32.83
2023-05-13T09:19:29.822Z,30.33
2023-05-13T09:21:57.691Z,32.36
2023-05-13T09:24:24.777Z,31.52
2023-05-13T09:26:52.236Z,31.28
2023-05-13T09:29:22.168Z,32.47
2023-05-13T09:31:54.424Z,31.62
2023-05-13T09:34:35.237Z,32.98
2023-05-13T09:37:04.788Z,31.71
2023-05-13T09:39:34.598Z,31.54
2023-05-13T09:42:04.543Z,33.07
2023-05-13T09:44:32.939Z,33.46
2023-05-13T10:17:41.534Z,38.00
2023-05-13T10:20:08.998Z,35.37
2023-05-13T10:22:37.220Z,37.24
2023-05-13T10:25:05.340Z,35.24
2023-05-13T10:27:34.074Z,33.38
2023-05-13T10:30:05.909Z,35.11
2023-05-13T10:32:33.085Z,33.07
2023-05-13T10:35:06.870Z,35.95
2023-05-13T10:37:43.678Z,35.33
2023-05-13T10:40:16.669Z,35.49
2023-05-13T10:42:54.181Z,31.36
2023-05-13T10:45:27.649Z,32.39
2023-05-13T10:47:56.464Z,33.10
2023-05-13T10:50:24.533Z,29.90
2023-05-13T10:52:56.671Z,33.71
2023-05-13T10:55:24.204Z,31.60
2023-05-13T10:58:10.962Z,30.52
2023-05-13T11:00:39.071Z,30.93
2023-05-13T11:03:18.899Z,30.65
2023-05-13T11:05:58.967Z,31.39
2023-05-13T11:08:43.744Z,33.18
2023-05-13T11:11:22.865Z,31.21
2023-05-13T11:13:54.633Z,29.64
2023-05-13T11:16:23.335Z,30.68
2023-05-13T11:18:54.322Z,29.08
2023-05-13T11:21:33.096Z,31.00
2023-05-13T11:24:05.965Z,32.04
2023-05-13T11:26:51.738Z,32.34
2023-05-13T11:29:31.215Z,30.09
2023-05-13T11:32:00.808Z,32.19
2023-05-13T11:34:29.267Z,32.37
2023-05-13T11:37:05.397Z,32.76
2023-05-13T11:39:33.316Z,30.69
2023-05-13T11:42:04.112Z,29.75
2023-05-13T11:44:31.676Z,29.87
2023-05-13T11:46:59.750Z,30.70
2023-05-13T11:49:33.661Z,31.26
2023-05-13T11:52:14.651Z,30.82
2023-05-13T11:54:53.701Z,29.81
2023-05-13T11:57:26.291Z,30.66
2023-05-13T12:00:05.437Z,29.36
2023-05-13T12:02:40.794Z,31.78
2023-05-13T12:05:09.990Z,31.50
2023-05-13T12:07:38.548Z,31.10
2023-05-13T12:10:07.299Z,30.13
2023-05-13T12:12:38.204Z,31.48
2023-05-13T12:15:10.296Z,29.32
2023-05-13T12:17:37.810Z,31.19
2023-05-13T12:20:08.446Z,30.10
2023-05-13T12:22:36.603Z,31.56
2023-05-13T12:25:41.009Z,30.22
2023-05-13T12:28:24.335Z,31.76
2023-05-13T12:31:01.871Z,29.84
2023-05-13T12:33:42.992Z,28.72
2023-05-13T12:36:20.563Z,29.25
2023-05-13T12:38:55.499Z,29.49
2023-05-13T12:41:26.030Z,29.38
2023-05-13T12:44:18.090Z,29.16
2023-05-13T12:46:55.777Z,29.52
2023-05-13T12:49:22.974Z,30.04
2023-05-13T12:51:51.830Z,29.03
2023-05-13T12:54:19.149Z,28.43
2023-05-13T12:56:46.280Z,27.75
2023-05-13T12:59:14.670Z,28.86
2023-05-13T13:01:43.047Z,29.74
2023-05-13T13:04:10.644Z,29.62
2023-05-13T13:06:37.936Z,27.74
2023-05-13T13:09:06.152Z,28.80
2023-05-13T13:11:33.237Z,30.30
2023-05-13T13:14:00.286Z,29.32
2023-05-13T13:16:27.655Z,29.01
2023-05-13T13:18:58.957Z,29.38
2023-05-13T13:21:27.019Z,30.77
2023-05-13T13:23:54.170Z,28.74
2023-05-13T13:26:23.290Z,30.84
2023-05-13T13:28:50.410Z,32.20
2023-05-13T13:31:17.609Z,31.57
2023-05-13T13:33:44.870Z,31.62
2023-05-13T13:36:11.983Z,32.76
2023-05-13T13:38:39.106Z,32.94
2023-05-13T13:41:06.355Z,32.62
2023-05-13T13:43:33.535Z,32.14
2023-05-13T13:46:00.778Z,30.91
2023-05-13T13:48:27.910Z,31.13
2023-05-13T13:50:55.199Z,31.14
2023-05-13T13:53:22.408Z,33.26
2023-05-13T13:55:49.626Z,32.36
2023-05-13T13:58:16.722Z,33.47
2023-05-13T14:00:43.896Z,35.58
2023-05-13T14:03:11.063Z,35.59
2023-05-13T14:05:38.472Z,34.71
2023-05-13T14:08:05.912Z,35.18
2023-05-13T14:10:33.062Z,35.71
2023-05-13T14:13:00.186Z,35.74
2023-05-13T14:15:29.801Z,35.64
2023-05-13T14:17:57.709Z,34.92
2023-05-13T14:20:25.185Z,36.40
2023-05-13T14:22:52.280Z,34.34
2023-05-13T14:25:19.326Z,35.89
2023-05-13T14:27:46.426Z,34.97
2023-05-13T14:30:13.702Z,35.58
2023-05-13T14:32:45.102Z,36.27
2023-05-13T14:35:13.094Z,35.58
2023-05-13T14:37:41.425Z,35.66
2023-05-13T14:40:09.744Z,35.75
2023-05-13T14:42:36.915Z,36.14
2023-05-13T14:45:04.250Z,35.94
2023-05-13T14:47:31.780Z,37.01
2023-05-13T14:49:58.984Z,36.39
2023-05-13T14:52:26.209Z,36.32
2023-05-13T14:54:54.355Z,36.47
2023-05-13T14:57:21.507Z,37.01
2023-05-13T14:59:48.612Z,37.92
2023-05-13T15:02:17.390Z,36.72
2023-05-13T15:04:44.898Z,36.88
2023-05-13T15:07:12.220Z,38.06
2023-05-13T15:09:39.379Z,37.72
2023-05-13T15:12:07.142Z,38.53
2023-05-13T15:14:34.188Z,38.72
2023-05-13T15:17:01.395Z,38.48
2023-05-13T15:19:28.859Z,38.14
2023-05-13T15:21:55.980Z,37.18
2023-05-13T15:24:23.155Z,36.30
2023-05-13T15:26:50.802Z,37.62
2023-05-13T15:29:18.186Z,38.95
2023-05-13T15:31:45.365Z,39.03
2023-05-13T15:34:12.448Z,40.21
2023-05-13T15:36:39.531Z,40.38
2023-05-13T15:39:07.016Z,41.63
2023-05-13T15:41:34.144Z,41.91
2023-05-13T15:44:01.250Z,42.18
2023-05-13T15:46:28.471Z,41.99
2023-05-13T15:48:55.960Z,42.10
2023-05-13T15:51:23.048Z,42.31
2023-05-13T15:53:50.659Z,43.03
2023-05-13T15:56:17.803Z,43.34
2023-05-13T15:58:45.145Z,44.19
2023-05-13T16:01:12.253Z,44.58
2023-05-13T16:03:39.412Z,44.87
2023-05-13T16:06:06.713Z,44.95
2023-05-13T16:08:33.827Z,45.49
2023-05-13T16:11:01.093Z,46.63
2023-05-13T16:13:28.171Z,47.86
2023-05-13T16:15:55.822Z,47.60
2023-05-13T16:18:23.127Z,49.26
2023-05-13T16:20:50.295Z,50.93
2023-05-13T16:23:17.387Z,51.73
2023-05-13T16:25:44.633Z,52.25
2023-05-13T16:28:11.749Z,53.13
2023-05-13T16:30:39.581Z,54.69
2023-05-13T16:33:08.091Z,55.80
2023-05-13T16:35:36.493Z,58.10
2023-05-13T16:38:03.701Z,59.74
2023-05-13T16:40:30.798Z,60.86
2023-05-13T16:43:00.442Z,61.49
2023-05-13T16:45:29.730Z,61.76
2023-05-13T16:47:57.100Z,62.25
2023-05-13T16:50:24.539Z,62.40
2023-05-13T16:52:51.859Z,64.42
2023-05-13T16:55:19.011Z,62.26
2023-05-13T16:57:46.938Z,57.61
2023-05-13T17:00:14.654Z,55.91
2023-05-13T17:02:42.924Z,53.99
2023-05-13T17:05:10.294Z,52.95
2023-05-13T17:07:37.428Z,51.16
2023-05-13T17:10:04.944Z,50.10
2023-05-13T17:12:32.128Z,48.80
2023-05-13T17:14:59.315Z,50.33
2023-05-13T17:19:53.786Z,48.56
2023-05-13T17:22:20.954Z,48.22
2023-05-13T17:24:48.083Z,49.88
2023-05-13T17:27:15.216Z,50.05
2023-05-13T17:29:42.329Z,50.63
2023-05-13T17:32:09.549Z,50.39
2023-05-13T17:34:36.618Z,51.07
2023-05-13T17:37:03.830Z,51.98
2023-05-13T17:39:31.023Z,52.79
2023-05-13T17:41:58.176Z,53.11
2023-05-13T17:44:25.511Z,52.87
2023-05-13T17:46:52.629Z,52.67
2023-05-13T17:49:19.737Z,52.60
2023-05-13T17:51:46.823Z,54.84
2023-05-13T17:54:14.264Z,55.76
2023-05-13T17:56:41.386Z,54.21
2023-05-13T17:59:08.591Z,53.55
2023-05-13T18:01:35.710Z,54.02
2023-05-13T18:04:02.809Z,54.42
2023-05-13T18:06:29.872Z,55.12
2023-05-13T18:08:57.061Z,54.50
2023-05-13T18:11:24.114Z,54.37
2023-05-13T18:13:51.192Z,52.73
2023-05-13T18:16:19.550Z,52.47
2023-05-13T18:18:48.906Z,51.83
2023-05-13T18:21:16.266Z,51.20
2023-05-13T18:23:45.906Z,50.70
2023-05-13T18:26:13.042Z,51.92
2023-05-13T18:28:45.007Z,50.99
2023-05-13T18:31:12.225Z,51.61
2023-05-13T18:33:39.423Z,51.90
2023-05-13T18:36:08.027Z,52.92
2023-05-13T18:38:35.993Z,52.83
2023-05-13T18:41:03.842Z,54.89
2023-05-13T18:43:31.034Z,55.31
2023-05-13T18:45:58.373Z,54.77
2023-05-13T18:48:25.530Z,54.56
2023-05-13T18:50:53.254Z,54.20
2023-05-13T18:53:20.702Z,53.82
2023-05-13T18:55:47.807Z,55.00
2023-05-13T18:58:14.969Z,54.33
2023-05-13T19:00:42.656Z,54.11
2023-05-13T19:03:09.912Z,54.50
2023-05-13T19:05:37.081Z,54.70
2023-05-13T19:08:05.435Z,54.65
2023-05-13T19:10:39.105Z,54.21
2023-05-13T19:13:07.312Z,53.25
2023-05-13T19:15:34.629Z,55.46
2023-05-13T19:18:02.098Z,55.85
2023-05-13T19:20:30.241Z,55.55
2023-05-13T19:22:57.486Z,56.41
2023-05-13T19:25:24.690Z,56.22
2023-05-13T19:27:51.931Z,56.64
2023-05-13T19:30:19.108Z,57.31
2023-05-13T19:32:46.361Z,57.16
2023-05-13T19:35:13.534Z,57.43
2023-05-13T19:37:40.874Z,57.71
2023-05-13T19:40:09.107Z,57.47
2023-05-13T19:42:36.338Z,58.16
2023-05-13T19:45:06.409Z,58.91
2023-05-13T19:47:34.946Z,59.56
2023-05-13T19:50:02.414Z,60.61
2023-05-13T19:52:29.883Z,62.00
2023-05-13T19:54:57.055Z,62.97
2023-05-13T19:57:24.151Z,62.89
2023-05-13T19:59:51.846Z,63.37
2023-05-13T20:02:19.119Z,62.52
2023-05-13T20:04:46.237Z,63.88
2023-05-13T20:07:13.313Z,64.61
2023-05-13T20:09:40.542Z,65.97
2023-05-13T20:12:07.938Z,64.60
2023-05-13T20:14:52.049Z,64.68
2023-05-13T20:17:21.252Z,67.10
2023-05-13T20:19:49.622Z,68.20
2023-05-13T20:22:18.362Z,68.39
2023-05-13T20:24:49.024Z,67.92
2023-05-13T20:27:17.645Z,68.27
2023-05-13T20:29:47.326Z,69.61
2023-05-13T20:32:18.504Z,67.75
2023-05-13T20:34:45.570Z,67.10
2023-05-13T20:37:12.673Z,66.97
2023-05-13T20:39:39.718Z,65.75
2023-05-13T20:42:06.886Z,62.42
2023-05-13T20:44:34.004Z,62.20
2023-05-13T20:47:01.078Z,58.75
2023-05-13T20:49:28.386Z,61.95
2023-05-13T20:51:55.571Z,61.47
2023-05-13T20:54:22.693Z,62.87
2023-05-13T20:56:49.798Z,60.42
2023-05-13T20:59:16.961Z,56.94
2023-05-13T21:01:47.623Z,59.10
2023-05-13T21:04:14.932Z,53.50
2023-05-13T21:06:42.267Z,53.45
2023-05-13T21:09:09.428Z,55.15
2023-05-13T21:11:36.578Z,55.31
2023-05-13T21:14:03.823Z,53.38
2023-05-13T21:16:31.188Z,55.47
2023-05-13T21:18:58.533Z,54.25
2023-05-13T21:21:25.843Z,53.40
2023-05-13T21:23:53.056Z,53.89
2023-05-13T21:26:22.045Z,54.48
2023-05-13T21:28:49.150Z,54.71
2023-05-13T21:31:16.319Z,57.84
2023-05-13T21:33:43.512Z,57.45
2023-05-13T21:36:10.608Z,58.42
2023-05-13T21:38:37.935Z,56.72
2023-05-13T21:41:05.110Z,56.73
2023-05-13T21:43:32.194Z,57.66
2023-05-13T21:45:59.364Z,58.71
2023-05-13T21:48:26.664Z,58.54
2023-05-13T21:50:53.997Z,59.23
2023-05-13T21:53:22.495Z,56.75
2023-05-13T21:55:49.641Z,56.19
2023-05-13T21:58:16.787Z,57.63
2023-05-13T22:00:43.929Z,56.90
2023-05-13T22:03:11.017Z,56.79
2023-05-13T22:05:43.822Z,57.94
2023-05-13T22:08:11.478Z,58.98
2023-05-13T22:10:39.469Z,60.13
2023-05-13T22:13:06.813Z,60.46
2023-05-13T22:15:33.937Z,61.93
2023-05-13T22:18:01.217Z,62.81
2023-05-13T22:20:28.490Z,65.12
2023-05-13T22:22:56.173Z,66.80
2023-05-13T22:25:23.335Z,66.56
2023-05-13T22:27:51.211Z,66.78
2023-05-13T22:30:18.677Z,60.87
2023-05-13T22:32:45.975Z,62.03
2023-05-13T22:35:13.129Z,62.56
2023-05-13T22:37:40.289Z,61.77
2023-05-13T22:40:11.253Z,63.01
2023-05-13T22:42:38.272Z,65.39
2023-05-13T22:45:05.784Z,66.29
2023-05-13T22:47:32.907Z,66.09
2023-05-13T22:50:00.085Z,66.38
2023-05-13T22:52:27.197Z,66.52
2023-05-13T22:54:54.252Z,66.88
2023-05-13T22:57:22.197Z,65.91
2023-05-13T22:59:49.310Z,64.42
2023-05-13T23:02:16.401Z,65.96
2023-05-13T23:04:43.471Z,64.33
2023-05-13T23:07:10.536Z,63.57
2023-05-13T23:09:37.602Z,64.82
2023-05-13T23:12:05.112Z,67.67
2023-05-13T23:14:32.199Z,68.63
2023-05-13T23:16:59.324Z,69.23
2023-05-13T23:19:26.415Z,69.81
2023-05-13T23:21:53.859Z,70.22
2023-05-13T23:24:21.356Z,70.04
2023-05-13T23:26:49.481Z,69.87
2023-05-13T23:29:16.934Z,70.23
2023-05-13T23:31:44.097Z,70.38
2023-05-13T23:34:11.247Z,70.49
2023-05-13T23:36:38.366Z,70.30
2023-05-13T23:39:06.235Z,69.89
2023-05-13T23:41:35.049Z,70.18
2023-05-13T23:44:02.690Z,69.21
2023-05-13T23:46:29.773Z,68.93
2023-05-13T23:48:57.087Z,69.05
2023-05-13T23:51:24.139Z,68.70
2023-05-13T23:53:52.029Z,68.04
2023-05-13T23:56:19.073Z,68.81
2023-05-13T23:58:46.134Z,67.87
